createdAt,value
2018-11-20T00:01:20.691Z,79.30
2018-11-20T00:04:14.486Z,79.30
2018-11-20T00:06:53.985Z,79.40
2018-11-20T00:09:53.671Z,79.10
2018-11-20T00:12:39.526Z,79.20
2018-11-20T00:15:25.764Z,79.40
2018-11-20T00:18:05.752Z,79.30
2018-11-20T00:20:51.296Z,79.30
2018-11-20T00:23:37.097Z,79.20
2018-11-20T00:26:23.156Z,79.30
2018-11-20T00:29:01.104Z,79.20
2018-11-20T00:31:42.160Z,79.20
2018-11-20T00:34:27.057Z,79.10
2018-11-20T00:37:13.048Z,79.30
2018-11-20T00:40:06.612Z,79.20
2018-11-20T00:42:52.622Z,79.40
2018-11-20T00:45:38.555Z,79.40
2018-11-20T00:48:24.606Z,79.00
2018-11-20T00:51:06.304Z,78.90
2018-11-20T00:53:56.828Z,79.10
2018-11-20T00:57:13.015Z,79.00
2018-11-20T01:00:09.516Z,78.80
2018-11-20T01:02:55.619Z,78.90
2018-11-20T01:05:55.243Z,79.20
2018-11-20T01:08:30.453Z,79.20
2018-11-20T01:11:23.785Z,79.30
2018-11-20T01:14:23.864Z,79.40
2018-11-20T01:17:10.166Z,79.70
2018-11-20T01:19:54.902Z,79.50
2018-11-20T01:22:57.643Z,79.80
2018-11-20T01:25:48.441Z,79.50
2018-11-20T01:28:35.883Z,79.80
2018-11-20T01:31:22.291Z,79.40
2018-11-20T01:34:08.667Z,79.40
2018-11-20T01:37:08.297Z,79.50
2018-11-20T01:39:54.299Z,79.40
2018-11-20T01:42:40.650Z,79.40
2018-11-20T01:45:28.093Z,79.40
2018-11-20T01:48:14.289Z,79.40
2018-11-20T01:51:09.494Z,79.50
2018-11-20T01:53:55.418Z,79.50
2018-11-20T01:56:41.808Z,79.40
2018-11-20T01:59:29.282Z,79.50
2018-11-20T02:02:15.244Z,79.80
2018-11-20T02:05:01.701Z,79.30
2018-11-20T02:07:40.885Z,79.50
2018-11-20T02:10:27.208Z,79.60
2018-11-20T02:14:04.454Z,79.40
2018-11-20T02:16:59.619Z,79.70
2018-11-20T02:19:47.064Z,79.40
2018-11-20T02:22:34.500Z,79.60
2018-11-20T02:25:19.960Z,79.70
2018-11-20T02:28:01.907Z,79.90
2018-11-20T02:30:40.411Z,79.70
2018-11-20T02:33:23.351Z,79.60
2018-11-20T02:36:07.814Z,79.90
2018-11-20T02:38:50.206Z,79.90
2018-11-20T02:41:28.456Z,79.60
2018-11-20T02:44:18.716Z,79.70
2018-11-20T02:47:04.879Z,79.90
2018-11-20T02:49:43.413Z,79.60
2018-11-20T02:52:33.905Z,79.90
2018-11-20T02:55:12.831Z,79.70
2018-11-20T02:58:06.677Z,79.70
2018-11-20T03:01:12.261Z,79.70
2018-11-20T03:03:58.382Z,79.90
2018-11-20T03:06:38.356Z,79.90
2018-11-20T03:09:29.686Z,79.90
2018-11-20T03:12:10.292Z,80.00
2018-11-20T03:14:56.524Z,79.90
2018-11-20T03:17:42.351Z,80.00
2018-11-20T03:20:30.628Z,79.90
2018-11-20T03:23:07.405Z,79.70
2018-11-20T03:26:13.213Z,80.00
2018-11-20T03:29:27.911Z,79.50
2018-11-20T03:32:15.377Z,79.50
2018-11-20T03:35:12.164Z,79.70
2018-11-20T03:37:58.599Z,79.70
2018-11-20T03:40:44.890Z,79.90
2018-11-20T03:43:39.216Z,79.70
2018-11-20T03:46:32.651Z,79.70
2018-11-20T03:49:22.234Z,79.90
2018-11-20T03:52:08.158Z,79.90
2018-11-20T03:54:51.375Z,80.20
2018-11-20T03:57:37.204Z,80.30
2018-11-20T04:00:37.460Z,80.50
2018-11-20T04:03:28.111Z,80.40
2018-11-20T04:06:06.194Z,80.30
2018-11-20T04:08:52.302Z,80.30
2018-11-20T04:11:45.858Z,80.10
2018-11-20T04:14:33.312Z,80.10
2018-11-20T04:17:27.321Z,80.30
2018-11-20T04:20:15.496Z,80.20
2018-11-20T04:23:01.553Z,80.40
2018-11-20T04:25:45.767Z,80.40
2018-11-20T04:28:44.945Z,80.30
2018-11-20T04:32:24.117Z,80.30
2018-11-20T04:35:10.085Z,80.10
2018-11-20T04:38:00.466Z,80.20
2018-11-20T04:40:47.055Z,80.20
2018-11-20T04:43:37.090Z,80.20
2018-11-20T04:46:24.295Z,80.20
2018-11-20T04:49:14.768Z,80.40
2018-11-20T04:52:04.795Z,80.20
2018-11-20T04:54:52.249Z,80.40
2018-11-20T04:57:54.913Z,80.50
2018-11-20T05:00:40.995Z,80.50
2018-11-20T05:03:26.997Z,80.20
2018-11-20T05:06:14.468Z,80.40
2018-11-20T05:09:04.713Z,80.40
2018-11-20T05:11:43.171Z,80.40
2018-11-20T05:14:29.309Z,80.50
2018-11-20T05:17:14.858Z,80.60
2018-11-20T05:20:01.257Z,80.20
2018-11-20T05:22:47.154Z,80.30
2018-11-20T05:25:43.444Z,80.40
2018-11-20T05:28:39.544Z,80.30
2018-11-20T05:31:32.860Z,80.50
2018-11-20T05:34:09.648Z,80.60
2018-11-20T05:36:49.081Z,80.70
2018-11-20T05:39:35.207Z,80.70
2018-11-20T05:42:21.545Z,80.60
2018-11-20T05:45:07.944Z,80.80
2018-11-20T05:47:55.396Z,81.00
2018-11-20T05:50:41.422Z,81.20
2018-11-20T05:53:27.737Z,81.20
2018-11-20T05:56:05.181Z,81.10
2018-11-20T05:58:55.529Z,81.10
2018-11-20T06:01:39.840Z,81.20
2018-11-20T06:04:39.427Z,81.30
2018-11-20T06:07:29.928Z,81.50
2018-11-20T06:10:29.578Z,81.50
2018-11-20T06:13:35.386Z,81.50
2018-11-20T06:16:34.598Z,81.30
2018-11-20T06:19:20.256Z,81.60
2018-11-20T06:22:16.602Z,81.60
2018-11-20T06:25:01.355Z,81.50
2018-11-20T06:28:06.979Z,81.70
2018-11-20T06:31:06.281Z,81.80
2018-11-20T06:34:06.018Z,81.70
2018-11-20T06:36:59.370Z,81.90
2018-11-20T06:39:49.458Z,82.00
2018-11-20T06:42:45.928Z,81.80
2018-11-20T06:45:51.630Z,81.80
2018-11-20T06:48:44.775Z,81.70
2018-11-20T06:51:23.025Z,81.90
2018-11-20T06:54:09.175Z,82.00
2018-11-20T06:56:59.300Z,81.90
2018-11-20T06:59:44.914Z,81.80
2018-11-20T07:02:25.650Z,81.90
2018-11-20T07:05:31.336Z,81.90
2018-11-20T07:08:11.904Z,81.70
2018-11-20T07:10:57.840Z,81.80
2018-11-20T07:13:50.357Z,81.70
2018-11-20T07:17:03.502Z,81.50
2018-11-20T07:20:02.877Z,81.60
2018-11-20T07:22:59.923Z,81.80
2018-11-20T07:25:46.142Z,81.90
2018-11-20T07:28:45.398Z,81.90
2018-11-20T07:31:44.734Z,81.90
2018-11-20T07:34:35.305Z,81.90
2018-11-20T07:37:17.831Z,82.00
2018-11-20T07:40:04.223Z,82.00
2018-11-20T07:42:44.667Z,81.80
2018-11-20T07:45:44.455Z,82.30
2018-11-20T07:48:43.772Z,82.10
2018-11-20T07:51:41.186Z,82.30
2018-11-20T07:54:31.230Z,81.90
2018-11-20T07:57:18.744Z,81.80
2018-11-20T08:00:00.026Z,81.90
2018-11-20T08:02:47.506Z,82.00
2018-11-20T08:05:39.785Z,81.90
2018-11-20T08:08:42.649Z,82.20
2018-11-20T08:11:28.464Z,81.90
2018-11-20T08:14:14.456Z,81.80
2018-11-20T08:17:01.890Z,81.70
2018-11-20T08:19:47.863Z,81.50
2018-11-20T08:22:26.719Z,81.50
2018-11-20T08:25:13.149Z,81.40
2018-11-20T08:27:59.077Z,81.60
2018-11-20T08:30:43.362Z,82.00
2018-11-20T08:33:30.822Z,82.10
2018-11-20T08:36:19.345Z,82.10
2018-11-20T08:39:05.266Z,82.10
2018-11-20T08:41:50.192Z,82.10
2018-11-20T08:44:36.537Z,81.80
2018-11-20T08:47:22.363Z,81.70
2018-11-20T08:50:08.295Z,81.80
2018-11-20T08:52:54.321Z,81.50
2018-11-20T08:55:39.733Z,81.70
2018-11-20T08:58:26.106Z,81.80
2018-11-20T09:01:17.054Z,81.60
2018-11-20T09:03:53.337Z,81.50
2018-11-20T09:06:52.989Z,81.50
2018-11-20T09:09:58.787Z,81.70
2018-11-20T09:12:48.847Z,81.10
2018-11-20T09:15:36.368Z,81.40
2018-11-20T09:18:30.783Z,81.20
2018-11-20T09:21:33.186Z,80.80
2018-11-20T09:24:19.591Z,81.00
2018-11-20T09:27:07.085Z,81.00
2018-11-20T09:29:57.346Z,81.00
2018-11-20T09:32:43.554Z,80.60
2018-11-20T09:35:40.445Z,80.40
2018-11-20T09:38:31.134Z,80.40
2018-11-20T09:41:17.295Z,80.60
2018-11-20T09:44:32.390Z,80.50
2018-11-20T09:47:31.955Z,80.40
2018-11-20T09:50:11.357Z,79.80
2018-11-20T09:53:01.896Z,79.90
2018-11-20T09:55:56.005Z,79.40
2018-11-20T09:58:49.551Z,79.60
2018-11-20T10:01:29.235Z,79.70
2018-11-20T10:04:11.456Z,79.70
2018-11-20T10:06:59.001Z,79.60
2018-11-20T10:09:35.130Z,79.40
2018-11-20T10:12:25.127Z,79.40
2018-11-20T10:15:11.486Z,79.40
2018-11-20T10:18:11.104Z,79.10
2018-11-20T10:20:57.241Z,79.00
2018-11-20T10:23:46.212Z,78.50
2018-11-20T10:26:32.335Z,78.30
2018-11-20T10:29:27.398Z,78.40
2018-11-20T10:32:17.751Z,78.20
2018-11-20T10:35:03.752Z,78.40
2018-11-20T10:38:00.347Z,77.90
2018-11-20T10:40:46.417Z,77.60
2018-11-20T10:43:49.046Z,77.70
2018-11-20T10:46:24.872Z,78.00
2018-11-20T10:49:10.942Z,77.80
2018-11-20T10:52:00.954Z,77.90
2018-11-20T10:54:51.157Z,78.20
2018-11-20T10:57:56.632Z,78.10
2018-11-20T11:00:42.595Z,77.50
2018-11-20T11:03:36.736Z,77.60
2018-11-20T11:06:23.065Z,77.50
2018-11-20T11:09:08.841Z,77.90
2018-11-20T11:12:11.799Z,77.40
2018-11-20T11:15:11.136Z,77.90
2018-11-20T11:18:01.346Z,77.50
2018-11-20T11:20:48.816Z,77.90
2018-11-20T11:23:25.333Z,78.10
2018-11-20T11:26:11.444Z,77.70
2018-11-20T11:28:58.918Z,77.70
2018-11-20T11:31:45.053Z,77.90
2018-11-20T11:34:38.653Z,77.90
2018-11-20T11:37:24.401Z,78.30
2018-11-20T11:40:10.786Z,78.10
2018-11-20T11:42:56.833Z,77.90
2018-11-20T11:45:49.964Z,77.60
2018-11-20T11:48:45.988Z,77.80
2018-11-20T11:51:35.212Z,77.60
2018-11-20T11:54:38.078Z,77.60
2018-11-20T11:57:34.744Z,77.50
2018-11-20T12:00:21.143Z,77.30
2018-11-20T12:05:55.942Z,77.80
2018-11-20T12:08:44.677Z,77.80
2018-11-20T12:11:30.676Z,77.60
2018-11-20T12:14:19.343Z,77.40
2018-11-20T12:17:05.449Z,77.20
2018-11-20T12:19:51.844Z,77.40
2018-11-20T12:22:45.179Z,77.50
2018-11-20T12:25:41.702Z,77.50
2018-11-20T12:28:32.712Z,77.20
2018-11-20T12:31:31.473Z,77.10
2018-11-20T12:34:21.963Z,77.00
2018-11-20T12:37:14.630Z,76.80
2018-11-20T12:39:58.405Z,76.80
2018-11-20T12:42:57.615Z,76.80
2018-11-20T12:46:01.959Z,77.10
2018-11-20T12:48:47.870Z,77.30
2018-11-20T12:51:35.310Z,77.00
2018-11-20T12:54:35.006Z,77.10
2018-11-20T12:57:25.531Z,77.10
2018-11-20T13:00:19.180Z,77.10
2018-11-20T13:03:05.996Z,77.00
2018-11-20T13:05:55.274Z,77.00
2018-11-20T13:08:41.346Z,77.20
2018-11-20T13:11:43.715Z,76.70
2018-11-20T13:14:26.766Z,77.00
2018-11-20T13:17:09.247Z,76.80
2018-11-20T13:19:54.161Z,76.90
2018-11-20T13:22:37.432Z,76.80
2018-11-20T13:25:20.201Z,77.00
2018-11-20T13:28:04.787Z,76.20
2018-11-20T13:31:10.169Z,76.20
2018-11-20T13:33:57.935Z,76.40
2018-11-20T13:36:42.555Z,76.30
2018-11-20T13:39:28.377Z,76.40
2018-11-20T13:42:06.637Z,76.00
2018-11-20T13:44:53.901Z,75.60
2018-11-20T13:47:40.076Z,75.90
2018-11-20T13:50:26.430Z,76.20
2018-11-20T13:53:12.710Z,75.90
2018-11-20T13:56:15.101Z,75.80
2018-11-20T13:59:08.790Z,76.10
2018-11-20T14:01:59.265Z,76.60
2018-11-20T14:04:36.915Z,76.70
2018-11-20T14:07:33.527Z,76.50
2018-11-20T14:10:23.705Z,76.30
2018-11-20T14:13:09.805Z,76.70
2018-11-20T14:15:56.262Z,76.30
2018-11-20T14:18:59.100Z,76.50
2018-11-20T14:21:49.113Z,76.70
2018-11-20T14:24:42.343Z,76.20
2018-11-20T14:27:28.728Z,75.90
2018-11-20T14:30:10.347Z,75.80
2018-11-20T14:32:56.290Z,76.30
2018-11-20T14:35:46.909Z,76.30
2018-11-20T14:38:40.386Z,76.30
2018-11-20T14:41:26.642Z,76.90
2018-11-20T14:44:17.171Z,76.60
2018-11-20T14:47:16.654Z,77.10
2018-11-20T14:49:57.914Z,76.50
2018-11-20T14:52:47.893Z,76.30
2018-11-20T14:55:34.010Z,76.00
2018-11-20T14:58:16.777Z,76.00
2018-11-20T15:01:06.896Z,76.10
2018-11-20T15:03:54.540Z,76.00
2018-11-20T15:06:47.829Z,76.50
2018-11-20T15:09:38.379Z,76.40
2018-11-20T15:12:17.950Z,76.60
2018-11-20T15:15:04.251Z,76.80
2018-11-20T15:17:42.240Z,76.60
2018-11-20T15:20:32.277Z,77.00
2018-11-20T15:23:08.942Z,77.20
2018-11-20T15:26:04.087Z,77.40
2018-11-20T15:28:52.548Z,77.20
2018-11-20T15:31:40.341Z,77.50
2018-11-20T15:34:25.118Z,77.80
2018-11-20T15:37:21.649Z,77.80
2018-11-20T15:40:11.878Z,77.80
2018-11-20T15:43:02.357Z,78.20
2018-11-20T15:45:40.302Z,78.60
2018-11-20T15:48:30.457Z,79.20
2018-11-20T15:51:07.384Z,79.40
2018-11-20T15:54:05.256Z,79.70
2018-11-20T15:56:51.385Z,79.50
2018-11-20T15:59:36.699Z,79.50
2018-11-20T16:02:27.286Z,79.50
2018-11-20T16:05:14.749Z,79.10
2018-11-20T16:08:09.950Z,79.00
2018-11-20T16:11:09.386Z,79.30
2018-11-20T16:13:51.346Z,79.40
2018-11-20T16:16:44.801Z,79.50
2018-11-20T16:19:25.897Z,79.70
2018-11-20T16:22:31.850Z,80.40
2018-11-20T16:25:28.140Z,80.20
2018-11-20T16:28:14.254Z,80.50
2018-11-20T16:31:16.813Z,80.70
2018-11-20T16:34:13.382Z,80.90
2018-11-20T16:37:19.020Z,81.20
2018-11-20T16:40:24.939Z,81.10
2018-11-20T16:43:12.390Z,81.20
2018-11-20T16:45:59.813Z,81.20
2018-11-20T16:48:47.287Z,81.40
2018-11-20T16:51:33.363Z,81.30
2018-11-20T16:54:19.274Z,81.30
2018-11-20T16:57:46.986Z,81.30
2018-11-20T17:00:36.594Z,82.00
2018-11-20T17:03:29.318Z,81.40
2018-11-20T17:06:07.708Z,81.30
2018-11-20T17:08:48.313Z,81.40
2018-11-20T17:11:35.603Z,81.20
2018-11-20T17:14:21.204Z,81.40
2018-11-20T17:16:57.818Z,81.40
2018-11-20T17:19:39.098Z,81.70
2018-11-20T17:22:31.591Z,81.20
2018-11-20T17:25:36.519Z,81.20
2018-11-20T17:28:12.264Z,81.30
2018-11-20T17:31:04.779Z,81.20
2018-11-20T17:33:53.453Z,81.60
2018-11-20T17:36:58.466Z,81.30
2018-11-20T17:39:47.990Z,81.50
2018-11-20T17:42:32.819Z,81.40
2018-11-20T17:45:19.493Z,81.40
2018-11-20T17:48:15.007Z,81.50
2018-11-20T17:51:00.155Z,81.80
2018-11-20T17:53:42.216Z,81.90
2018-11-20T17:56:28.907Z,82.10
2018-11-20T17:59:21.902Z,82.00
2018-11-20T18:02:05.391Z,82.20
2018-11-20T18:04:44.830Z,82.30
2018-11-20T18:07:30.431Z,82.40
2018-11-20T18:10:14.565Z,82.60
2018-11-20T18:12:58.141Z,82.60
2018-11-20T18:15:59.798Z,82.60
2018-11-20T18:18:40.172Z,82.80
2018-11-20T18:21:26.823Z,82.90
2018-11-20T18:24:23.371Z,83.00
2018-11-20T18:27:27.378Z,83.10
2018-11-20T18:30:12.741Z,83.20
2018-11-20T18:33:08.532Z,83.20
2018-11-20T18:36:01.445Z,83.40
2018-11-20T18:39:06.691Z,83.30
2018-11-20T18:41:59.189Z,83.30
2018-11-20T18:44:45.904Z,83.60
2018-11-20T18:47:35.538Z,83.60
2018-11-20T18:50:21.114Z,84.00
2018-11-20T18:53:20.267Z,83.80
2018-11-20T18:55:55.574Z,84.00
2018-11-20T18:58:54.368Z,84.00
2018-11-20T19:01:35.315Z,84.10
2018-11-20T19:04:31.244Z,84.10
2018-11-20T19:07:16.634Z,84.00
2018-11-20T19:10:12.375Z,84.20
2018-11-20T19:13:10.866Z,84.20
2018-11-20T19:15:56.463Z,84.10
2018-11-20T19:18:45.924Z,83.90
2018-11-20T19:21:28.262Z,84.10
2018-11-20T19:24:23.440Z,83.90
2018-11-20T19:27:53.226Z,84.20
2018-11-20T19:31:09.124Z,84.40
2018-11-20T19:34:03.475Z,84.40
2018-11-20T19:36:49.403Z,84.40
2018-11-20T19:39:25.100Z,84.40
2018-11-20T19:42:37.485Z,84.70
2018-11-20T19:45:20.273Z,84.50
2018-11-20T19:48:28.934Z,84.80
2018-11-20T19:51:14.652Z,84.80
2018-11-20T19:54:00.922Z,84.80
2018-11-20T19:56:49.501Z,84.90
2018-11-20T19:59:40.414Z,84.80
2018-11-20T20:02:37.395Z,84.90
2018-11-20T20:05:23.274Z,85.00
2018-11-20T20:08:09.048Z,85.20
2018-11-20T20:11:15.338Z,85.50
2018-11-20T20:14:17.511Z,85.60
2018-11-20T20:17:03.011Z,85.20
2018-11-20T20:19:50.414Z,85.00
2018-11-20T20:22:42.787Z,84.90
2018-11-20T20:25:41.466Z,85.00
2018-11-20T20:28:31.348Z,85.00
2018-11-20T20:31:30.343Z,85.00
2018-11-20T20:34:23.012Z,85.20
2018-11-20T20:37:21.660Z,85.40
2018-11-20T20:40:23.446Z,85.40
2018-11-20T20:43:10.106Z,85.50
2018-11-20T20:45:59.581Z,85.70
2018-11-20T20:48:55.292Z,85.60
2018-11-20T20:51:48.218Z,85.50
2018-11-20T20:54:33.863Z,85.80
2018-11-20T20:57:15.165Z,85.80
2018-11-20T21:00:00.681Z,85.80
2018-11-20T21:02:45.410Z,85.80
2018-11-20T21:05:50.474Z,86.10
2018-11-20T21:08:37.125Z,86.10
2018-11-20T21:11:19.262Z,86.20
2018-11-20T21:14:08.948Z,86.30
2018-11-20T21:16:55.617Z,86.30
2018-11-20T21:19:51.745Z,86.40
2018-11-20T21:22:37.225Z,86.50
2018-11-20T21:25:23.882Z,86.10
2018-11-20T21:28:13.275Z,86.10
2018-11-20T21:30:50.914Z,86.20
2018-11-20T21:33:29.451Z,86.00
2018-11-20T21:36:14.881Z,86.50
2018-11-20T21:39:00.402Z,86.50
2018-11-20T21:41:50.279Z,86.60
2018-11-20T21:44:35.823Z,86.60
2018-11-20T21:47:10.583Z,86.50
2018-11-20T21:50:00.395Z,86.50
2018-11-20T21:52:47.147Z,86.20
2018-11-20T21:55:36.664Z,86.40
2018-11-20T21:58:26.369Z,86.50
2018-11-20T22:01:15.426Z,86.50
2018-11-20T22:04:08.263Z,86.30
2018-11-20T22:06:56.166Z,86.20
2018-11-20T22:09:55.184Z,86.00
2018-11-20T22:12:44.849Z,86.00
2018-11-20T22:15:37.654Z,85.80
2018-11-20T22:18:23.033Z,86.00
2018-11-20T22:21:08.350Z,86.20
2018-11-20T22:24:10.048Z,86.40
2018-11-20T22:26:47.203Z,86.40
2018-11-20T22:29:36.941Z,86.60
2018-11-20T22:32:22.459Z,86.80
2018-11-20T22:35:07.719Z,86.90
2018-11-20T22:38:06.383Z,87.20
2018-11-20T22:41:11.438Z,86.80
2018-11-20T22:43:56.832Z,87.30
2018-11-20T22:46:42.360Z,88.00
2018-11-20T22:49:32.051Z,88.20
2018-11-20T22:52:37.103Z,87.70
2018-11-20T22:55:33.385Z,87.80
2018-11-20T22:58:35.500Z,87.60
2018-11-20T23:01:31.214Z,87.50
2018-11-20T23:04:16.816Z,87.30
2018-11-20T23:07:02.281Z,87.10
2018-11-20T23:09:29.402Z,86.90
2018-11-20T23:11:56.478Z,87.50
2018-11-20T23:14:23.567Z,87.50
2018-11-20T23:16:51.021Z,87.50
2018-11-20T23:19:18.402Z,87.30
2018-11-20T23:21:45.476Z,87.30
2018-11-20T23:24:13.485Z,87.10
2018-11-20T23:26:41.433Z,87.00
2018-11-20T23:29:08.058Z,87.10
2018-11-20T23:31:35.486Z,87.20
2018-11-20T23:34:02.646Z,87.00
2018-11-20T23:36:29.723Z,86.70
2018-11-20T23:38:56.824Z,86.70
2018-11-20T23:41:23.916Z,86.50
2018-11-20T23:43:51.074Z,86.70
2018-11-20T23:46:18.169Z,86.90
2018-11-20T23:48:45.265Z,86.70
2018-11-20T23:51:12.330Z,87.00
2018-11-20T23:53:39.460Z,86.90
2018-11-20T23:56:06.767Z,86.90
2018-11-20T23:58:33.885Z,86.80
